Terminal Aerodrome Forecast
Issued by NWS Grand Forks, ND

Home | Current Version | Previous Version | Text Only | Print | Product List | Glossary Off
Versions: 1 2 3 4 5 6 7 8 9 10 11 12 13 14 15 16 17 18 19 20 21 22 23

000
FTUS43 KFGF 271100
TAFFAR
TAF
KFAR 271129Z 2712/2812 15008KT 1/2SM FZFG VV002
      TEMPO 2714/2716 3SM BR BKN005
     FM271600 16012KT 3SM BR BKN005
      TEMPO 2716/2718 P6SM NSW BKN010
     FM271800 16014KT P6SM BKN010
     FM272100 16013KT P6SM BKN250=

USA.gov is the U.S. government's official web portal to all federal, state and local government web resources and services.